Time;durP1;ratioP1;P1;durP2;ratioP2;P2;SDS_P1;SDS_P2;PMS_P1;PMS_P2;Temp;Humidity;BMP_temperature;BMP_pressure;BME280_temperature;BME280_humidity;BME280_pressure;Samples;Min_cycle;Max_cycle;Signal;HPM_P1;HPM_P2
2022/06/14 00:01:14;;;;;;;6.30;2.80;;;12.10;95.10;;;;;;5013634;28;20467;-56
2022/06/14 00:03:42;;;;;;;6.75;2.75;;;12.00;94.80;;;;;;5013288;28;20064;-63
2022/06/14 00:06:23;;;;;;;6.68;2.95;;;12.00;94.80;;;;;;5013385;28;20037;-57
2022/06/14 00:08:49;;;;;;;7.22;3.20;;;11.90;95.10;;;;;;5013033;28;20040;-57
2022/06/14 00:11:19;;;;;;;7.32;3.22;;;11.90;94.80;;;;;;5012221;28;20030;-57
2022/06/14 00:13:45;;;;;;;5.55;2.85;;;11.90;94.60;;;;;;5013129;28;20089;-60
2022/06/14 00:16:12;;;;;;;6.03;2.80;;;11.90;94.80;;;;;;5013236;28;20030;-60
2022/06/14 00:18:38;;;;;;;5.88;2.40;;;11.80;94.80;;;;;;5012786;28;20068;-53
2022/06/14 00:21:05;;;;;;;6.88;2.58;;;11.80;94.90;;;;;;5013303;28;20037;-50
2022/06/14 00:23:31;;;;;;;7.75;2.72;;;11.80;95.00;;;;;;5013142;28;20030;-60
2022/06/14 00:25:58;;;;;;;4.53;2.60;;;11.70;95.10;;;;;;5012805;28;20034;-51
2022/06/14 00:28:26;;;;;;;8.10;2.88;;;11.70;95.10;;;;;;5012624;28;20443;-47
2022/06/14 00:30:55;;;;;;;6.65;2.85;;;11.60;95.10;;;;;;5012736;28;20389;-51
2022/06/14 00:33:22;;;;;;;7.20;3.33;;;11.60;95.30;;;;;;5012952;28;20030;-54
2022/06/14 00:35:48;;;;;;;5.47;3.03;;;11.60;95.30;;;;;;5012666;28;20026;-48
2022/06/14 00:38:15;;;;;;;5.47;3.00;;;11.60;95.30;;;;;;5012621;28;20026;-49
2022/06/14 00:40:48;;;;;;;5.93;2.85;;;11.60;95.30;;;;;;5012344;28;20100;-49
2022/06/14 00:43:17;;;;;;;6.07;2.88;;;11.60;95.20;;;;;;5012540;28;20029;-59
2022/06/14 00:45:43;;;;;;;8.93;2.92;;;11.60;95.20;;;;;;5012591;28;20030;-57
2022/06/14 00:48:12;;;;;;;6.72;3.20;;;11.60;95.30;;;;;;5012068;28;20049;-56
2022/06/14 00:50:43;;;;;;;7.20;3.05;;;11.50;95.20;;;;;;5012199;28;20440;-58
2022/06/14 00:53:46;;;;;;;5.32;2.83;;;11.60;95.20;;;;;;5012835;28;20026;-55
2022/06/14 00:56:22;;;;;;;6.05;2.83;;;11.50;95.20;;;;;;5009607;28;20034;-57
2022/06/14 00:58:59;;;;;;;6.80;2.95;;;11.50;95.20;;;;;;5012202;28;20080;-49
2022/06/14 01:01:32;;;;;;;7.68;3.30;;;11.50;95.10;;;;;;5012431;28;20022;-60
2022/06/14 01:04:02;;;;;;;6.63;3.25;;;11.40;95.20;;;;;;5012232;28;20053;-48
2022/06/14 01:06:40;;;;;;;7.28;3.10;;;11.40;95.20;;;;;;5012281;28;20049;-50
2022/06/14 01:09:21;;;;;;;8.77;2.90;;;11.40;95.30;;;;;;5011811;28;20104;-50
2022/06/14 01:11:59;;;;;;;9.20;2.63;;;11.30;95.10;;;;;;5012314;28;20032;-59
2022/06/14 01:14:51;;;;;;;4.50;2.65;;;11.30;94.80;;;;;;5011984;28;20030;-44
2022/06/14 01:17:16;;;;;;;5.55;2.60;;;11.20;94.80;;;;;;4993945;28;20033;-56
2022/06/14 01:19:43;;;;;;;4.80;2.47;;;11.20;94.70;;;;;;5011684;28;20421;-49
2022/06/14 01:22:08;;;;;;;4.80;2.15;;;11.20;94.70;;;;;;5011841;28;20021;-51
2022/06/14 01:24:36;;;;;;;6.15;2.47;;;11.10;94.40;;;;;;5012035;28;20673;-57
2022/06/14 01:27:04;;;;;;;4.55;2.50;;;11.00;94.60;;;;;;5011906;28;20022;-60
2022/06/14 01:29:33;;;;;;;5.03;2.78;;;11.00;94.60;;;;;;5017708;28;20026;-56
2022/06/14 01:32:02;;;;;;;6.30;2.75;;;10.90;94.60;;;;;;5011964;28;20022;-57
2022/06/14 01:34:30;;;;;;;4.22;2.33;;;10.90;94.60;;;;;;5010458;28;20018;-55
2022/06/14 01:36:59;;;;;;;3.92;2.40;;;10.90;94.70;;;;;;5011644;28;20026;-45
2022/06/14 01:39:26;;;;;;;5.85;2.30;;;10.80;94.50;;;;;;5011184;28;20033;-60
2022/06/14 01:42:19;;;;;;;5.13;2.55;;;10.80;94.50;;;;;;5011653;28;20030;-57
2022/06/14 01:45:10;;;;;;;5.70;2.28;;;10.70;94.60;;;;;;4998907;28;20374;-59
2022/06/14 01:47:59;;;;;;;4.60;2.10;;;10.70;94.80;;;;;;5011478;28;20018;-61
2022/06/14 01:54:00;;;;;;;5.40;2.42;;;10.70;95.00;;;;;;4981291;28;20511;-61
2022/06/14 01:56:40;;;;;;;5.47;3.28;;;10.70;95.00;;;;;;5011256;28;20030;-50
2022/06/14 01:59:15;;;;;;;5.32;2.63;;;10.70;94.90;;;;;;5004499;28;20104;-57
2022/06/14 02:02:00;;;;;;;7.50;2.45;;;10.70;95.10;;;;;;5011336;28;20176;-57
2022/06/14 02:04:39;;;;;;;4.90;2.53;;;10.60;94.90;;;;;;5011043;28;20065;-57
2022/06/14 02:07:14;;;;;;;7.57;2.63;;;10.60;94.80;;;;;;5011280;28;20033;-50
2022/06/14 02:09:57;;;;;;;6.70;2.60;;;10.50;94.60;;;;;;5010756;28;20133;-57
2022/06/14 02:12:40;;;;;;;5.97;2.55;;;10.40;94.90;;;;;;5011146;28;20515;-50
2022/06/14 02:15:12;;;;;;;6.28;2.50;;;10.40;95.00;;;;;;5011117;28;20037;-57
2022/06/14 02:18:04;;;;;;;5.47;2.67;;;10.40;95.20;;;;;;5011386;28;20125;-59
2022/06/14 02:20:40;;;;;;;5.28;2.30;;;10.30;95.10;;;;;;4984896;28;20034;-56
2022/06/14 02:23:08;;;;;;;4.53;2.55;;;10.30;95.20;;;;;;5011095;28;20053;-56
2022/06/14 02:25:48;;;;;;;5.82;2.50;;;10.30;95.30;;;;;;5011050;28;20440;-51
2022/06/14 02:28:20;;;;;;;5.30;2.58;;;10.20;95.50;;;;;;5010571;28;20026;-51
2022/06/14 02:30:57;;;;;;;4.65;2.55;;;10.20;95.30;;;;;;5011210;28;20041;-55
2022/06/14 02:33:29;;;;;;;7.15;2.72;;;10.10;95.50;;;;;;5010920;28;20057;-61
2022/06/14 02:36:06;;;;;;;5.40;2.42;;;10.10;95.60;;;;;;5011109;28;20026;-57
2022/06/14 02:38:50;;;;;;;5.90;2.72;;;10.10;95.60;;;;;;5010445;28;20021;-56
2022/06/14 02:41:26;;;;;;;4.78;2.50;;;10.10;95.40;;;;;;5011167;28;20025;-53
2022/06/14 02:43:59;;;;;;;6.35;2.63;;;10.10;95.60;;;;;;5010059;28;20029;-55
2022/06/14 02:46:38;;;;;;;7.90;2.70;;;10.10;95.50;;;;;;5010829;28;20034;-55
2022/06/14 02:49:19;;;;;;;8.52;2.60;;;10.00;95.50;;;;;;5010756;28;20070;-61
2022/06/14 02:51:52;;;;;;;8.02;2.60;;;10.10;95.50;;;;;;5010934;28;20053;-52
2022/06/14 02:54:44;;;;;;;6.03;2.50;;;10.10;95.40;;;;;;5010737;28;20025;-44
2022/06/14 02:57:30;;;;;;;9.25;2.92;;;10.10;95.30;;;;;;4987763;28;20121;-55
2022/06/14 03:00:02;;;;;;;10.32;2.97;;;10.00;95.10;;;;;;5007474;28;20018;-55
2022/06/14 03:02:52;;;;;;;7.07;2.63;;;9.90;95.10;;;;;;5010731;28;20030;-47
2022/06/14 03:05:35;;;;;;;7.90;2.70;;;9.90;95.30;;;;;;5002658;28;20041;-57
2022/06/14 03:08:19;;;;;;;7.43;2.80;;;9.90;95.70;;;;;;5014090;28;20046;-58
2022/06/14 03:11:05;;;;;;;6.07;2.80;;;9.90;95.90;;;;;;5014244;28;20053;-52
2022/06/14 03:13:46;;;;;;;5.93;2.83;;;9.80;96.00;;;;;;5014565;28;20033;-58
2022/06/14 03:16:24;;;;;;;5.47;2.80;;;9.80;96.10;;;;;;5014211;28;20105;-49
2022/06/14 03:19:11;;;;;;;6.18;2.65;;;9.80;96.00;;;;;;5013911;28;20112;-58
2022/06/14 03:22:05;;;;;;;6.72;2.42;;;9.80;96.00;;;;;;5014038;28;20026;-54
2022/06/14 03:24:40;;;;;;;5.97;2.88;;;9.80;96.10;;;;;;5013963;28;20112;-56
2022/06/14 03:27:26;;;;;;;7.47;2.40;;;9.70;96.10;;;;;;5012698;28;20065;-57
2022/06/14 03:30:01;;;;;;;6.43;2.20;;;9.80;96.10;;;;;;5013362;28;20053;-49
2022/06/14 03:32:45;;;;;;;5.03;2.47;;;9.70;95.90;;;;;;5014067;28;20033;-54
2022/06/14 03:35:26;;;;;;;4.97;2.47;;;9.70;95.90;;;;;;5014223;28;20030;-47
2022/06/14 03:37:54;;;;;;;4.63;2.63;;;9.60;95.80;;;;;;5014248;28;20030;-43
2022/06/14 03:40:21;;;;;;;8.20;2.75;;;9.60;95.90;;;;;;5010597;28;20072;-52
2022/06/14 03:42:46;;;;;;;4.88;2.22;;;9.60;95.90;;;;;;5013995;28;20092;-50
2022/06/14 03:45:17;;;;;;;4.97;2.30;;;9.50;95.90;;;;;;5013843;28;20437;-53
2022/06/14 03:47:43;;;;;;;5.15;2.38;;;9.50;95.90;;;;;;5013289;28;20068;-53
2022/06/14 03:50:13;;;;;;;5.75;2.42;;;9.50;95.90;;;;;;5013529;28;20034;-43
2022/06/14 03:53:33;;;;;;;6.03;2.10;;;9.50;96.20;;;;;;5013470;28;20072;-49
2022/06/14 03:55:58;;;;;;;;;;;9.50;96.30;;;;;;4953448;29;20035;-42
2022/06/14 03:58:51;;;;;;;4.97;2.35;;;9.50;96.20;;;;;;5000535;28;20011;-53
2022/06/14 04:01:27;;;;;;;3.63;2.00;;;9.60;96.20;;;;;;5013408;28;20034;-46
2022/06/14 04:04:08;;;;;;;5.80;2.47;;;9.50;96.30;;;;;;5013469;28;20018;-46
2022/06/14 04:07:02;;;;;;;4.50;2.20;;;9.60;96.30;;;;;;5000841;28;20045;-55
2022/06/14 04:09:44;;;;;;;6.18;2.83;;;9.60;96.40;;;;;;5009928;28;20058;-52
2022/06/14 04:12:25;;;;;;;3.97;2.10;;;9.60;96.50;;;;;;5013568;28;20105;-49
2022/06/14 04:15:27;;;;;;;3.08;2.08;;;9.60;96.00;;;;;;5013234;28;20104;-52
2022/06/14 04:18:41;;;;;;;5.03;2.30;;;9.60;96.40;;;;;;5012432;28;20058;-56
2022/06/14 04:21:34;;;;;;;6.70;2.30;;;9.60;96.20;;;;;;4952500;29;20031;-59
2022/06/14 04:24:03;;;;;;;4.85;2.20;;;9.60;96.10;;;;;;4952622;29;20027;-54
2022/06/14 04:26:43;;;;;;;5.45;2.50;;;9.70;95.90;;;;;;4997054;28;20152;-48
2022/06/14 04:29:17;;;;;;;4.72;2.30;;;9.60;95.70;;;;;;5012638;28;20018;-54
2022/06/14 04:32:10;;;;;;;3.08;1.88;;;9.60;95.70;;;;;;5012830;28;20018;-62
2022/06/14 04:34:47;;;;;;;4.57;2.35;;;9.60;95.60;;;;;;5012222;28;20061;-51
2022/06/14 04:37:23;;;;;;;4.82;2.00;;;9.60;95.60;;;;;;4999980;28;20029;-50
2022/06/14 04:39:57;;;;;;;5.03;2.30;;;9.60;95.80;;;;;;5012724;28;20022;-56
2022/06/14 04:42:39;;;;;;;3.13;1.92;;;9.60;95.60;;;;;;5012656;28;20054;-49
2022/06/14 04:45:17;;;;;;;6.10;2.47;;;9.70;95.50;;;;;;5012655;28;20397;-54
2022/06/14 04:47:48;;;;;;;5.18;2.00;;;9.70;95.70;;;;;;5006841;28;20029;-57
2022/06/14 04:50:32;;;;;;;6.32;2.22;;;9.80;95.70;;;;;;5005306;28;20153;-57
2022/06/14 04:53:14;;;;;;;3.22;2.22;;;9.80;96.10;;;;;;4999899;28;20378;-50
2022/06/14 04:55:53;;;;;;;3.58;2.20;;;10.20;96.70;;;;;;5012178;28;20160;-58
2022/06/14 04:58:37;;;;;;;6.63;2.65;;;10.90;96.00;;;;;;5012199;28;20061;-57
2022/06/14 05:01:16;;;;;;;5.32;2.10;;;11.80;93.90;;;;;;5012431;28;20053;-56
2022/06/14 05:03:55;;;;;;;3.97;2.03;;;12.60;91.70;;;;;;5012267;28;20030;-51
2022/06/14 05:06:36;;;;;;;5.03;2.03;;;13.30;90.50;;;;;;5012414;28;20088;-58
2022/06/14 05:09:21;;;;;;;4.28;2.03;;;13.90;88.70;;;;;;5011896;28;20740;-59
2022/06/14 05:11:52;;;;;;;3.78;1.83;;;14.40;87.00;;;;;;5002757;28;20022;-50
2022/06/14 05:14:29;;;;;;;4.20;1.80;;;14.70;85.30;;;;;;5011284;28;20042;-50
2022/06/14 05:17:07;;;;;;;4.55;1.90;;;14.80;84.50;;;;;;5012011;28;20022;-59
2022/06/14 05:19:48;;;;;;;3.38;1.95;;;14.70;84.30;;;;;;5010239;28;20106;-55
2022/06/14 05:22:22;;;;;;;3.83;1.83;;;14.40;85.50;;;;;;5001448;28;20015;-45
2022/06/14 05:24:49;;;;;;;5.03;2.05;;;14.10;86.30;;;;;;4995208;28;20092;-49
2022/06/14 05:27:21;;;;;;;4.97;1.92;;;13.80;87.50;;;;;;5009804;28;20374;-43
2022/06/14 05:30:25;;;;;;;5.50;1.90;;;13.70;89.10;;;;;;5011381;28;20034;-50
2022/06/14 05:32:55;;;;;;;3.42;1.70;;;13.70;90.00;;;;;;5011738;28;20026;-53
2022/06/14 05:35:30;;;;;;;4.43;2.03;;;13.70;90.30;;;;;;5011693;28;20084;-55
2022/06/14 05:38:02;;;;;;;4.05;1.90;;;13.70;90.60;;;;;;5011440;28;20082;-49
2022/06/14 05:40:35;;;;;;;6.38;3.22;;;13.70;89.80;;;;;;5011657;28;20469;-48
2022/06/14 05:43:28;;;;;;;2.80;1.75;;;13.90;89.70;;;;;;5011620;28;20503;-55
2022/06/14 05:46:02;;;;;;;6.80;1.85;;;14.10;90.00;;;;;;5010608;28;20030;-59
2022/06/14 05:48:33;;;;;;;4.15;1.65;;;14.50;90.20;;;;;;5011368;28;20030;-58
2022/06/14 05:51:00;;;;;;;2.97;1.67;;;15.00;89.30;;;;;;5011548;28;20508;-46
2022/06/14 05:53:42;;;;;;;3.00;1.75;;;15.80;86.80;;;;;;5011494;28;20034;-55
2022/06/14 05:56:37;;;;;;;5.93;2.13;;;16.70;84.80;;;;;;5008555;28;20029;-57
2022/06/14 05:59:36;;;;;;;4.30;1.70;;;17.70;82.30;;;;;;5006060;28;20103;-52
2022/06/14 06:02:26;;;;;;;3.60;1.77;;;18.70;77.20;;;;;;5010026;28;20022;-54
2022/06/14 06:04:55;;;;;;;4.10;1.50;;;19.60;73.80;;;;;;5011309;28;20030;-52
2022/06/14 06:07:29;;;;;;;3.85;1.63;;;20.30;72.00;;;;;;5011318;28;20117;-56
2022/06/14 06:10:05;;;;;;;6.00;2.80;;;20.80;70.40;;;;;;5011028;28;20038;-51
2022/06/14 06:12:42;;;;;;;4.35;1.85;;;21.10;65.30;;;;;;5011128;28;20088;-55
2022/06/14 06:15:10;;;;;;;6.78;1.60;;;21.50;66.30;;;;;;5009808;28;20021;-59
2022/06/14 06:17:42;;;;;;;3.85;1.50;;;21.80;64.40;;;;;;5009347;28;20121;-53
2022/06/14 06:20:15;;;;;;;5.82;1.67;;;22.20;65.30;;;;;;5009200;28;20041;-54
2022/06/14 06:22:47;;;;;;;2.75;1.23;;;22.60;62.50;;;;;;5009215;28;20014;-56
2022/06/14 06:25:24;;;;;;;4.38;1.40;;;22.80;60.00;;;;;;5009243;28;20037;-44
2022/06/14 06:28:14;;;;;;;6.30;1.70;;;23.30;58.60;;;;;;5009024;28;20045;-43
2022/06/14 06:30:56;;;;;;;5.72;1.42;;;23.60;58.40;;;;;;5010386;28;20021;-46
2022/06/14 06:33:25;;;;;;;6.10;2.10;;;23.80;67.90;;;;;;5010927;28;20033;-52
2022/06/14 06:36:12;;;;;;;2.75;1.20;;;23.90;62.70;;;;;;5010994;28;20034;-54
2022/06/14 06:39:08;;;;;;;3.30;1.30;;;24.20;63.60;;;;;;5010864;28;20460;-54
2022/06/14 06:41:54;;;;;;;4.05;1.30;;;24.40;60.80;;;;;;5009946;28;20132;-49
2022/06/14 06:44:28;;;;;;;3.85;1.38;;;24.90;59.50;;;;;;5014709;28;20508;-52
2022/06/14 06:47:28;;;;;;;4.95;1.58;;;25.30;59.40;;;;;;5002373;28;20035;-49
2022/06/14 06:50:00;;;;;;;3.00;1.27;;;25.60;54.60;;;;;;5001403;28;20026;-48
2022/06/14 06:53:09;;;;;;;7.60;1.70;;;25.90;54.10;;;;;;5014433;28;20092;-55
2022/06/14 06:55:57;;;;;;;5.35;1.65;;;25.80;50.70;;;;;;5014351;28;20026;-51
2022/06/14 06:58:33;;;;;;;2.78;1.08;;;26.10;50.10;;;;;;5014664;28;20025;-51
2022/06/14 07:01:04;;;;;;;8.50;1.90;;;26.10;53.10;;;;;;5011547;28;20026;-53
2022/06/14 07:03:55;;;;;;;4.05;1.35;;;26.30;46.20;;;;;;5014492;28;20026;-47
2022/06/14 07:06:37;;;;;;;4.43;1.50;;;26.70;46.00;;;;;;5008307;28;20034;-52
2022/06/14 07:09:12;;;;;;;3.95;1.20;;;27.00;44.70;;;;;;5002349;28;20050;-55
2022/06/14 07:11:49;;;;;;;4.13;1.42;;;27.20;46.40;;;;;;5012676;28;20033;-57
2022/06/14 07:14:43;;;;;;;3.95;1.20;;;27.10;41.40;;;;;;5014071;28;20022;-56
2022/06/14 07:17:17;;;;;;;3.75;1.40;;;27.30;39.80;;;;;;5005815;28;20050;-54
2022/06/14 07:19:50;;;;;;;5.00;1.40;;;27.90;45.10;;;;;;5009136;28;20030;-47
2022/06/14 07:22:21;;;;;;;3.85;1.40;;;28.00;38.80;;;;;;5011593;28;20461;-55
2022/06/14 07:25:07;;;;;;;4.45;1.50;;;27.90;40.70;;;;;;5014135;28;20030;-52
2022/06/14 07:28:07;;;;;;;6.63;1.50;;;28.30;39.70;;;;;;5006499;28;20033;-55
2022/06/14 07:30:46;;;;;;;3.00;1.25;;;28.20;41.10;;;;;;5013984;28;20033;-49
2022/06/14 07:33:13;;;;;;;3.67;1.40;;;28.30;39.40;;;;;;5013778;28;20041;-47
2022/06/14 07:35:49;;;;;;;2.80;1.10;;;28.00;42.00;;;;;;5013792;28;20473;-44
2022/06/14 07:38:15;;;;;;;5.28;1.40;;;28.20;39.80;;;;;;5013679;28;20036;-49
2022/06/14 07:41:01;;;;;;;4.47;1.23;;;28.50;40.10;;;;;;5013684;28;20022;-52
2022/06/14 07:43:30;;;;;;;4.40;1.70;;;28.50;40.40;;;;;;5013939;28;20091;-53
2022/06/14 07:46:01;;;;;;;6.30;1.63;;;28.20;36.80;;;;;;5013608;28;20136;-55
2022/06/14 07:48:49;;;;;;;5.10;1.60;;;28.60;41.50;;;;;;5013711;28;20119;-54
2022/06/14 07:51:32;;;;;;;3.17;1.35;;;28.90;39.00;;;;;;4999843;28;20030;-45
2022/06/14 07:54:04;;;;;;;3.65;1.30;;;29.50;36.80;;;;;;5013702;28;20385;-60
2022/06/14 07:56:34;;;;;;;3.83;1.30;;;29.40;38.20;;;;;;5013373;28;20037;-51
2022/06/14 07:59:23;;;;;;;4.22;1.60;;;29.10;40.60;;;;;;5013634;28;20057;-54
2022/06/14 08:01:51;;;;;;;;;;;29.20;36.90;;;;;;5012149;28;20025;-44
2022/06/14 08:04:39;;;;;;;4.78;1.40;;;29.40;37.10;;;;;;5013169;28;19916;-43
2022/06/14 08:07:12;;;;;;;4.30;1.60;;;29.90;39.40;;;;;;5013171;28;20037;-52
2022/06/14 08:09:41;;;;;;;5.68;1.73;;;30.00;37.50;;;;;;5013122;28;20125;-43
2022/06/14 08:12:16;;;;;;;3.90;1.30;;;30.40;36.80;;;;;;5013090;28;20405;-48
2022/06/14 08:14:50;;;;;;;3.70;1.60;;;29.90;37.90;;;;;;5013100;28;20444;-46
2022/06/14 08:17:47;;;;;;;5.40;1.77;;;29.80;40.40;;;;;;5013081;28;20030;-45
2022/06/14 08:20:26;;;;;;;3.85;1.65;;;29.50;38.80;;;;;;5005816;28;20036;-46
2022/06/14 08:22:56;;;;;;;4.35;1.70;;;28.80;40.50;;;;;;5012923;28;20030;-43
2022/06/14 08:25:32;;;;;;;7.05;1.80;;;28.60;40.40;;;;;;5011282;28;20038;-43
2022/06/14 08:28:15;;;;;;;5.28;1.65;;;29.00;42.10;;;;;;5012448;28;20041;-46
2022/06/14 08:30:56;;;;;;;3.30;1.60;;;28.80;37.30;;;;;;5012893;28;20026;-57
2022/06/14 08:33:36;;;;;;;6.53;1.60;;;28.80;37.50;;;;;;5011398;28;20053;-39
2022/06/14 08:36:06;;;;;;;4.00;1.65;;;28.70;40.20;;;;;;5010653;28;20024;-43
2022/06/14 08:38:49;;;;;;;3.70;1.50;;;29.20;39.80;;;;;;5012160;28;20057;-41
2022/06/14 08:41:39;;;;;;;4.68;1.50;;;29.60;39.30;;;;;;5012692;28;20416;-40
2022/06/14 08:44:22;;;;;;;4.68;1.52;;;28.70;41.70;;;;;;5010404;28;20037;-44
2022/06/14 08:46:55;;;;;;;3.72;1.50;;;28.40;40.30;;;;;;5012476;28;20038;-41
2022/06/14 08:49:21;;;;;;;4.82;1.88;;;28.20;43.10;;;;;;5012300;28;20203;-39
2022/06/14 08:52:22;;;;;;;4.85;1.52;;;28.40;42.50;;;;;;4997952;28;20842;-53
2022/06/14 08:55:26;;;;;;;6.13;1.70;;;28.40;41.10;;;;;;4993338;28;20034;-62
2022/06/14 08:58:04;;;;;;;4.53;1.60;;;28.40;38.80;;;;;;5012684;28;20029;-58
2022/06/14 09:00:30;;;;;;;;;;;28.60;40.50;;;;;;5008195;28;20081;-54
2022/06/14 09:03:14;;;;;;;6.03;1.60;;;28.40;40.70;;;;;;5005273;28;19952;-58
2022/06/14 09:05:47;;;;;;;6.40;1.42;;;28.60;38.70;;;;;;5011495;28;20046;-52
2022/06/14 09:08:19;;;;;;;3.97;1.45;;;28.20;41.20;;;;;;5011530;28;20077;-61
2022/06/14 09:10:54;;;;;;;4.38;1.65;;;28.50;39.80;;;;;;5011945;28;20074;-42
2022/06/14 09:13:41;;;;;;;3.47;1.52;;;28.50;43.70;;;;;;5012185;28;20052;-58
2022/06/14 09:16:34;;;;;;;5.25;1.67;;;28.10;38.90;;;;;;5011939;28;20461;-48
2022/06/14 09:19:18;;;;;;;6.40;1.60;;;27.90;41.60;;;;;;5006689;28;20026;-57
2022/06/14 09:22:06;;;;;;;5.65;1.70;;;27.90;42.60;;;;;;5012118;28;20049;-51
2022/06/14 09:24:50;;;;;;;7.13;2.27;;;27.70;38.80;;;;;;5007604;28;20018;-53
2022/06/14 09:27:49;;;;;;;6.72;1.75;;;27.70;43.80;;;;;;4998187;28;20489;-47
2022/06/14 09:30:17;;;;;;;;;;;27.80;46.40;;;;;;5007693;28;20177;-49
2022/06/14 09:33:10;;;;;;;7.15;2.00;;;27.80;39.50;;;;;;5011570;28;20359;-49
2022/06/14 09:35:54;;;;;;;5.90;1.73;;;27.50;41.00;;;;;;5011726;28;20075;-52
2022/06/14 09:38:31;;;;;;;5.47;1.67;;;27.80;43.80;;;;;;5011713;28;20026;-50
2022/06/14 09:41:11;;;;;;;3.38;1.70;;;27.80;41.30;;;;;;5011698;28;20033;-58
2022/06/14 09:43:42;;;;;;;4.07;1.40;;;27.90;36.80;;;;;;5004899;28;20164;-47
2022/06/14 09:46:52;;;;;;;5.70;1.75;;;27.80;39.60;;;;;;4996621;28;20497;-52
2022/06/14 09:49:26;;;;;;;6.18;1.52;;;27.50;40.80;;;;;;4948728;29;20058;-49
2022/06/14 09:52:06;;;;;;;5.10;1.92;;;27.50;41.20;;;;;;5000333;28;20108;-52
2022/06/14 09:54:47;;;;;;;4.75;1.60;;;27.10;42.00;;;;;;5009543;28;20026;-52
2022/06/14 09:57:49;;;;;;;6.82;1.73;;;27.30;42.10;;;;;;5009544;28;20030;-51
2022/06/14 10:00:25;;;;;;;5.15;1.77;;;27.60;40.00;;;;;;5002542;28;20029;-44
2022/06/14 10:03:08;;;;;;;6.82;1.70;;;27.40;45.40;;;;;;5011127;28;20104;-51
2022/06/14 10:06:01;;;;;;;3.72;1.50;;;27.60;42.90;;;;;;5011254;28;20496;-46
2022/06/14 10:08:39;;;;;;;5.32;1.90;;;27.60;40.80;;;;;;5000128;28;20045;-45
2022/06/14 10:11:04;;;;;;;5.50;1.60;;;27.00;36.50;;;;;;5011165;28;20493;-46
2022/06/14 10:14:04;;;;;;;6.55;2.00;;;26.80;41.70;;;;;;5010929;28;20035;-48
2022/06/14 10:17:12;;;;;;;3.97;1.73;;;26.30;37.90;;;;;;5011079;28;20101;-47
2022/06/14 10:20:02;;;;;;;4.93;1.70;;;26.10;38.60;;;;;;4957641;28;20046;-45
2022/06/14 10:22:56;;;;;;;4.85;1.70;;;25.80;42.10;;;;;;5011195;28;20084;-44
2022/06/14 10:28:52;;;;;;;5.63;1.90;;;26.90;42.30;;;;;;4950627;29;20110;-56
2022/06/14 10:32:01;;;;;;;4.57;1.52;;;27.00;43.40;;;;;;5010765;28;20504;-46
2022/06/14 10:34:59;;;;;;;5.10;1.70;;;26.90;40.50;;;;;;4950458;29;20074;-46
2022/06/14 10:37:44;;;;;;;6.65;1.80;;;26.70;43.90;;;;;;4967294;28;20117;-46
2022/06/14 10:40:09;;;;;;;6.38;1.92;;;27.00;43.30;;;;;;5011031;28;20497;-52
2022/06/14 10:42:39;;;;;;;4.78;1.58;;;27.00;44.40;;;;;;5010812;28;20049;-46
2022/06/14 10:45:19;;;;;;;6.18;1.70;;;27.00;41.10;;;;;;5010991;28;20029;-54
2022/06/14 10:47:57;;;;;;;3.55;1.58;;;27.10;43.00;;;;;;5011207;28;20026;-44
2022/06/14 10:50:28;;;;;;;4.13;1.55;;;27.10;42.80;;;;;;5010932;28;20026;-48
2022/06/14 10:52:59;;;;;;;4.85;1.48;;;27.20;39.00;;;;;;4997563;28;20108;-55
2022/06/14 10:55:55;;;;;;;8.07;1.80;;;27.40;42.30;;;;;;5010982;28;20030;-52
2022/06/14 10:58:51;;;;;;;4.53;1.70;;;27.30;39.60;;;;;;5000240;28;20022;-48
2022/06/14 11:01:34;;;;;;;5.63;1.52;;;27.20;41.00;;;;;;5010740;28;20400;-45
2022/06/14 11:04:06;;;;;;;4.78;1.60;;;26.80;38.90;;;;;;5010935;28;20061;-55
2022/06/14 11:06:55;;;;;;;7.55;1.50;;;26.70;39.80;;;;;;4997543;28;20384;-57
2022/06/14 11:09:46;;;;;;;6.30;2.05;;;26.30;38.60;;;;;;5010320;28;20392;-58
2022/06/14 11:12:28;;;;;;;5.93;1.80;;;25.70;38.50;;;;;;5010756;28;20026;-53
2022/06/14 11:15:22;;;;;;;6.60;1.70;;;25.50;41.30;;;;;;5010785;28;20022;-54
2022/06/14 11:17:56;;;;;;;5.68;1.88;;;25.30;41.10;;;;;;5009324;28;20497;-45
2022/06/14 11:20:54;;;;;;;4.82;1.60;;;25.40;43.00;;;;;;5010680;28;20103;-55
2022/06/14 11:23:27;;;;;;;4.45;1.92;;;25.70;41.20;;;;;;5009890;28;20038;-51
2022/06/14 11:26:02;;;;;;;7.72;1.52;;;26.00;40.10;;;;;;5012420;28;20139;-54
2022/06/14 11:28:27;;;;;;;6.68;1.88;;;25.90;38.80;;;;;;5013971;28;20030;-47
2022/06/14 11:31:11;;;;;;;3.83;1.58;;;25.90;41.30;;;;;;5014179;28;20029;-55
2022/06/14 11:33:45;;;;;;;4.28;1.50;;;25.70;40.00;;;;;;5013970;28;20137;-59
2022/06/14 11:36:29;;;;;;;3.22;1.40;;;25.60;43.80;;;;;;5013944;28;20033;-54
2022/06/14 11:39:17;;;;;;;4.18;1.65;;;25.80;43.90;;;;;;5001530;28;20022;-49
2022/06/14 11:41:46;;;;;;;4.47;1.52;;;25.50;40.20;;;;;;5013862;28;20030;-50
2022/06/14 11:44:18;;;;;;;5.60;1.40;;;25.40;44.10;;;;;;5014053;28;20081;-60
2022/06/14 11:47:01;;;;;;;5.28;1.40;;;25.70;40.20;;;;;;5013813;28;20125;-56
2022/06/14 11:49:52;;;;;;;5.55;1.70;;;25.70;42.90;;;;;;5013758;28;20014;-54
2022/06/14 11:52:41;;;;;;;5.38;1.50;;;25.80;41.00;;;;;;5013567;28;20056;-52
2022/06/14 11:55:22;;;;;;;5.38;1.48;;;26.00;41.50;;;;;;5013791;28;20084;-57
2022/06/14 11:58:00;;;;;;;4.55;1.67;;;26.10;45.80;;;;;;5013580;28;20153;-50
2022/06/14 12:00:54;;;;;;;4.45;1.92;;;26.00;40.90;;;;;;5013643;28;20030;-58
2022/06/14 12:03:41;;;;;;;4.38;1.50;;;25.80;40.50;;;;;;5002186;28;20108;-54
2022/06/14 12:06:39;;;;;;;4.15;1.35;;;25.80;46.00;;;;;;5013273;28;20061;-46
2022/06/14 12:09:49;;;;;;;4.68;1.60;;;26.20;43.70;;;;;;5013327;28;20042;-56
2022/06/14 12:12:33;;;;;;;5.38;1.70;;;25.70;42.60;;;;;;4966891;28;20042;-53
2022/06/14 12:15:27;;;;;;;5.38;1.60;;;25.40;43.80;;;;;;5013102;28;20030;-58
2022/06/14 12:17:58;;;;;;;6.07;1.77;;;25.70;45.60;;;;;;5013333;28;20392;-50
2022/06/14 12:20:25;;;;;;;4.30;1.58;;;25.60;41.00;;;;;;5013569;28;20470;-58
2022/06/14 12:23:15;;;;;;;7.38;1.67;;;25.70;42.50;;;;;;5013039;28;20034;-56
2022/06/14 12:28:42;;;;;;;8.18;1.73;;;25.50;40.00;;;;;;5012996;28;20097;-50
2022/06/14 12:31:18;;;;;;;7.07;1.70;;;25.20;45.20;;;;;;5013124;28;20024;-57
2022/06/14 12:33:54;;;;;;;5.60;1.48;;;25.00;40.20;;;;;;4999821;28;20014;-51
2022/06/14 12:36:31;;;;;;;5.53;1.40;;;24.80;45.30;;;;;;5013112;28;20489;-47
2022/06/14 12:39:05;;;;;;;3.42;1.33;;;25.10;49.50;;;;;;5000951;28;20018;-48
2022/06/14 12:41:37;;;;;;;4.50;1.30;;;25.10;40.60;;;;;;5012955;28;20108;-47
2022/06/14 12:44:11;;;;;;;5.38;1.77;;;24.90;44.50;;;;;;5012626;28;20037;-54
2022/06/14 12:46:42;;;;;;;4.65;1.52;;;25.00;46.60;;;;;;5012673;28;20046;-47
2022/06/14 12:49:29;;;;;;;6.78;1.85;;;25.00;42.10;;;;;;5012738;28;20022;-45
2022/06/14 12:52:11;;;;;;;4.90;1.77;;;24.80;41.20;;;;;;5013115;28;20053;-51
2022/06/14 12:54:46;;;;;;;6.85;2.15;;;24.60;44.50;;;;;;4999426;28;20026;-48
2022/06/14 12:57:23;;;;;;;6.35;1.80;;;24.20;46.20;;;;;;5012611;28;20062;-58
2022/06/14 13:00:07;;;;;;;4.40;1.38;;;24.20;48.60;;;;;;5000035;28;20025;-51
2022/06/14 13:02:42;;;;;;;6.15;1.55;;;24.30;43.70;;;;;;5012248;28;20036;-49
2022/06/14 13:05:11;;;;;;;5.63;1.80;;;24.30;50.00;;;;;;5012330;28;20034;-53
2022/06/14 13:07:48;;;;;;;4.65;1.65;;;24.50;45.40;;;;;;5012220;28;20018;-52
2022/06/14 13:10:29;;;;;;;4.35;1.48;;;24.20;41.70;;;;;;5010101;28;20049;-57
2022/06/14 13:13:17;;;;;;;5.85;1.50;;;24.20;49.60;;;;;;5012003;28;20026;-43
2022/06/14 13:15:54;;;;;;;4.45;1.63;;;24.20;47.90;;;;;;5012156;28;20508;-46
2022/06/14 13:18:33;;;;;;;3.88;1.55;;;24.20;48.10;;;;;;5011369;28;20068;-45
2022/06/14 13:21:23;;;;;;;5.30;1.70;;;24.20;44.70;;;;;;5011779;28;20037;-52
2022/06/14 13:24:28;;;;;;;4.25;1.52;;;24.10;47.60;;;;;;5011304;28;20045;-57
2022/06/14 13:26:59;;;;;;;4.40;1.40;;;24.00;48.50;;;;;;5000783;28;20081;-48
2022/06/14 13:29:53;;;;;;;4.80;1.50;;;24.10;47.50;;;;;;4999134;28;20077;-60
2022/06/14 13:32:30;;;;;;;6.28;2.17;;;24.10;46.90;;;;;;5000923;28;20033;-45
2022/06/14 13:35:21;;;;;;;8.07;1.60;;;24.00;43.80;;;;;;5011983;28;20037;-53
2022/06/14 13:37:57;;;;;;;6.30;1.83;;;23.80;46.80;;;;;;5011812;28;20022;-43
2022/06/14 13:40:44;;;;;;;4.40;1.45;;;23.80;48.80;;;;;;5008922;28;20018;-46
2022/06/14 13:43:33;;;;;;;5.25;1.33;;;23.60;44.10;;;;;;5010863;28;20037;-52
2022/06/14 13:46:21;;;;;;;5.07;1.90;;;23.50;45.30;;;;;;5011402;28;20038;-59
2022/06/14 13:49:06;;;;;;;4.90;1.70;;;23.40;46.50;;;;;;5010677;28;20030;-54
2022/06/14 13:51:44;;;;;;;6.38;1.42;;;23.50;49.00;;;;;;5011681;28;20515;-57
2022/06/14 13:54:30;;;;;;;3.47;1.60;;;23.60;49.00;;;;;;5011581;28;20037;-48
2022/06/14 13:57:30;;;;;;;5.97;1.45;;;23.50;48.90;;;;;;5011290;28;20026;-53
2022/06/14 14:00:35;;;;;;;5.28;1.80;;;23.60;47.40;;;;;;5006029;28;20034;-47
2022/06/14 14:03:12;;;;;;;3.72;1.52;;;23.50;48.70;;;;;;5007707;28;20021;-49